sensor_id;sensor_type;location;lat;lon;timestamp;P1;durP1;ratioP1;P2;durP2;ratioP2
79124;SDS011;68527;39.470;-0.376;2023-04-24T00:02:14;6.60;;;4.70;;
79124;SDS011;68527;39.470;-0.376;2023-04-24T00:07:05;6.00;;;4.30;;
79124;SDS011;68527;39.470;-0.376;2023-04-24T00:09:32;7.40;;;4.80;;
79124;SDS011;68527;39.470;-0.376;2023-04-24T00:11:58;5.20;;;4.50;;
79124;SDS011;68527;39.470;-0.376;2023-04-24T00:14:24;8.80;;;4.60;;
79124;SDS011;68527;39.470;-0.376;2023-04-24T00:19:15;6.50;;;4.50;;
79124;SDS011;68527;39.470;-0.376;2023-04-24T00:21:41;6.10;;;4.30;;
79124;SDS011;68527;39.470;-0.376;2023-04-24T00:26:34;5.30;;;3.70;;
79124;SDS011;68527;39.470;-0.376;2023-04-24T00:29:00;5.90;;;3.90;;
79124;SDS011;68527;39.470;-0.376;2023-04-24T00:33:51;7.80;;;4.70;;
79124;SDS011;68527;39.470;-0.376;2023-04-24T00:36:16;6.20;;;4.30;;
79124;SDS011;68527;39.470;-0.376;2023-04-24T00:38:44;6.70;;;4.30;;
79124;SDS011;68527;39.470;-0.376;2023-04-24T00:43:35;5.90;;;4.60;;
79124;SDS011;68527;39.470;-0.376;2023-04-24T00:48:26;5.80;;;4.00;;
79124;SDS011;68527;39.470;-0.376;2023-04-24T00:50:53;5.60;;;4.00;;
79124;SDS011;68527;39.470;-0.376;2023-04-24T00:53:19;6.20;;;4.40;;
79124;SDS011;68527;39.470;-0.376;2023-04-24T00:55:45;6.80;;;4.40;;
79124;SDS011;68527;39.470;-0.376;2023-04-24T00:58:11;6.00;;;4.10;;
79124;SDS011;68527;39.470;-0.376;2023-04-24T01:00:36;6.30;;;4.40;;
79124;SDS011;68527;39.470;-0.376;2023-04-24T01:03:02;5.90;;;4.10;;
79124;SDS011;68527;39.470;-0.376;2023-04-24T01:05:31;6.70;;;4.60;;
79124;SDS011;68527;39.470;-0.376;2023-04-24T01:07:57;6.10;;;4.00;;
79124;SDS011;68527;39.470;-0.376;2023-04-24T01:10:23;6.00;;;4.00;;
79124;SDS011;68527;39.470;-0.376;2023-04-24T01:12:49;5.10;;;4.40;;
79124;SDS011;68527;39.470;-0.376;2023-04-24T01:15:15;5.40;;;3.90;;
79124;SDS011;68527;39.470;-0.376;2023-04-24T01:20:07;5.80;;;4.50;;
79124;SDS011;68527;39.470;-0.376;2023-04-24T01:22:34;6.50;;;3.80;;
79124;SDS011;68527;39.470;-0.376;2023-04-24T01:24:59;5.20;;;4.20;;
79124;SDS011;68527;39.470;-0.376;2023-04-24T01:27:25;7.10;;;4.30;;
79124;SDS011;68527;39.470;-0.376;2023-04-24T01:29:51;6.60;;;4.30;;
79124;SDS011;68527;39.470;-0.376;2023-04-24T01:32:17;5.40;;;4.10;;
79124;SDS011;68527;39.470;-0.376;2023-04-24T01:34:43;6.60;;;3.90;;
79124;SDS011;68527;39.470;-0.376;2023-04-24T01:37:09;6.90;;;4.20;;
79124;SDS011;68527;39.470;-0.376;2023-04-24T01:42:01;6.30;;;4.40;;
79124;SDS011;68527;39.470;-0.376;2023-04-24T01:44:27;5.90;;;4.00;;
79124;SDS011;68527;39.470;-0.376;2023-04-24T01:46:53;6.80;;;4.40;;
79124;SDS011;68527;39.470;-0.376;2023-04-24T01:49:20;7.60;;;4.40;;
79124;SDS011;68527;39.470;-0.376;2023-04-24T01:51:45;7.40;;;4.50;;
79124;SDS011;68527;39.470;-0.376;2023-04-24T01:54:12;7.10;;;4.30;;
79124;SDS011;68527;39.470;-0.376;2023-04-24T01:56:39;5.80;;;4.50;;
79124;SDS011;68527;39.470;-0.376;2023-04-24T01:59:07;5.80;;;4.20;;
79124;SDS011;68527;39.470;-0.376;2023-04-24T02:01:33;6.00;;;4.10;;
79124;SDS011;68527;39.470;-0.376;2023-04-24T02:04:01;6.40;;;4.30;;
79124;SDS011;68527;39.470;-0.376;2023-04-24T02:06:27;6.10;;;3.80;;
79124;SDS011;68527;39.470;-0.376;2023-04-24T02:08:52;6.30;;;4.10;;
79124;SDS011;68527;39.470;-0.376;2023-04-24T02:11:18;6.20;;;4.00;;
79124;SDS011;68527;39.470;-0.376;2023-04-24T02:13:44;7.70;;;4.50;;
79124;SDS011;68527;39.470;-0.376;2023-04-24T02:16:10;5.40;;;3.90;;
79124;SDS011;68527;39.470;-0.376;2023-04-24T02:18:36;6.20;;;4.20;;
79124;SDS011;68527;39.470;-0.376;2023-04-24T02:23:27;7.20;;;4.30;;
79124;SDS011;68527;39.470;-0.376;2023-04-24T02:25:52;5.70;;;4.40;;
79124;SDS011;68527;39.470;-0.376;2023-04-24T02:28:18;6.60;;;4.00;;
79124;SDS011;68527;39.470;-0.376;2023-04-24T02:30:44;5.20;;;4.30;;
79124;SDS011;68527;39.470;-0.376;2023-04-24T02:33:11;5.60;;;4.00;;
79124;SDS011;68527;39.470;-0.376;2023-04-24T02:35:36;6.50;;;4.30;;
79124;SDS011;68527;39.470;-0.376;2023-04-24T02:38:02;5.90;;;4.00;;
79124;SDS011;68527;39.470;-0.376;2023-04-24T02:40:28;6.20;;;4.30;;
79124;SDS011;68527;39.470;-0.376;2023-04-24T02:42:54;5.40;;;4.20;;
79124;SDS011;68527;39.470;-0.376;2023-04-24T02:45:20;7.30;;;3.70;;
79124;SDS011;68527;39.470;-0.376;2023-04-24T02:47:46;8.20;;;4.40;;
79124;SDS011;68527;39.470;-0.376;2023-04-24T02:52:37;4.80;;;3.80;;
79124;SDS011;68527;39.470;-0.376;2023-04-24T02:55:03;5.60;;;4.10;;
79124;SDS011;68527;39.470;-0.376;2023-04-24T02:57:29;6.70;;;3.90;;
79124;SDS011;68527;39.470;-0.376;2023-04-24T02:59:55;7.20;;;4.30;;
79124;SDS011;68527;39.470;-0.376;2023-04-24T03:02:20;5.30;;;4.30;;
79124;SDS011;68527;39.470;-0.376;2023-04-24T03:07:13;5.90;;;3.90;;
79124;SDS011;68527;39.470;-0.376;2023-04-24T03:09:39;5.00;;;3.90;;
79124;SDS011;68527;39.470;-0.376;2023-04-24T03:12:05;6.30;;;4.50;;
79124;SDS011;68527;39.470;-0.376;2023-04-24T03:14:31;5.10;;;4.00;;
79124;SDS011;68527;39.470;-0.376;2023-04-24T03:16:57;6.90;;;4.00;;
79124;SDS011;68527;39.470;-0.376;2023-04-24T03:19:22;6.30;;;4.20;;
79124;SDS011;68527;39.470;-0.376;2023-04-24T03:21:48;7.10;;;4.60;;
79124;SDS011;68527;39.470;-0.376;2023-04-24T03:24:14;5.70;;;4.00;;
79124;SDS011;68527;39.470;-0.376;2023-04-24T03:26:40;6.20;;;4.50;;
79124;SDS011;68527;39.470;-0.376;2023-04-24T03:31:31;6.40;;;4.20;;
79124;SDS011;68527;39.470;-0.376;2023-04-24T03:33:56;6.10;;;4.40;;
79124;SDS011;68527;39.470;-0.376;2023-04-24T03:36:22;6.00;;;4.20;;
79124;SDS011;68527;39.470;-0.376;2023-04-24T03:41:13;6.00;;;4.00;;
79124;SDS011;68527;39.470;-0.376;2023-04-24T03:43:38;4.60;;;3.50;;
79124;SDS011;68527;39.470;-0.376;2023-04-24T03:46:04;7.80;;;4.20;;
79124;SDS011;68527;39.470;-0.376;2023-04-24T03:48:30;5.10;;;3.90;;
79124;SDS011;68527;39.470;-0.376;2023-04-24T03:53:21;6.90;;;4.20;;
79124;SDS011;68527;39.470;-0.376;2023-04-24T03:58:12;6.40;;;4.30;;
79124;SDS011;68527;39.470;-0.376;2023-04-24T04:00:39;6.30;;;4.00;;
79124;SDS011;68527;39.470;-0.376;2023-04-24T04:03:06;5.10;;;4.20;;
79124;SDS011;68527;39.470;-0.376;2023-04-24T04:07:57;5.70;;;3.90;;
79124;SDS011;68527;39.470;-0.376;2023-04-24T04:12:48;7.60;;;4.50;;
79124;SDS011;68527;39.470;-0.376;2023-04-24T04:15:14;6.10;;;3.90;;
79124;SDS011;68527;39.470;-0.376;2023-04-24T04:17:40;4.40;;;3.80;;
79124;SDS011;68527;39.470;-0.376;2023-04-24T04:20:06;5.50;;;4.10;;
79124;SDS011;68527;39.470;-0.376;2023-04-24T04:22:34;5.50;;;5.00;;
79124;SDS011;68527;39.470;-0.376;2023-04-24T04:27:25;5.20;;;4.20;;
79124;SDS011;68527;39.470;-0.376;2023-04-24T04:29:51;7.60;;;4.20;;
79124;SDS011;68527;39.470;-0.376;2023-04-24T04:32:17;5.00;;;4.00;;
79124;SDS011;68527;39.470;-0.376;2023-04-24T04:34:43;6.10;;;4.70;;
79124;SDS011;68527;39.470;-0.376;2023-04-24T04:37:10;6.30;;;4.20;;
79124;SDS011;68527;39.470;-0.376;2023-04-24T04:39:37;4.60;;;3.80;;
79124;SDS011;68527;39.470;-0.376;2023-04-24T04:42:03;5.20;;;4.20;;
79124;SDS011;68527;39.470;-0.376;2023-04-24T04:44:29;7.30;;;4.70;;
79124;SDS011;68527;39.470;-0.376;2023-04-24T04:46:57;8.00;;;4.60;;
79124;SDS011;68527;39.470;-0.376;2023-04-24T04:49:25;5.40;;;4.20;;
79124;SDS011;68527;39.470;-0.376;2023-04-24T04:51:53;5.70;;;4.10;;
79124;SDS011;68527;39.470;-0.376;2023-04-24T04:56:44;7.90;;;3.90;;
79124;SDS011;68527;39.470;-0.376;2023-04-24T04:59:10;5.40;;;4.10;;
79124;SDS011;68527;39.470;-0.376;2023-04-24T05:01:36;6.00;;;4.30;;
79124;SDS011;68527;39.470;-0.376;2023-04-24T05:04:01;4.60;;;4.10;;
79124;SDS011;68527;39.470;-0.376;2023-04-24T05:06:27;6.90;;;4.80;;
79124;SDS011;68527;39.470;-0.376;2023-04-24T05:08:52;6.70;;;4.30;;
79124;SDS011;68527;39.470;-0.376;2023-04-24T05:11:22;7.20;;;4.70;;
79124;SDS011;68527;39.470;-0.376;2023-04-24T05:13:49;5.20;;;4.10;;
79124;SDS011;68527;39.470;-0.376;2023-04-24T05:16:14;4.80;;;3.90;;
79124;SDS011;68527;39.470;-0.376;2023-04-24T05:21:05;6.00;;;4.00;;
79124;SDS011;68527;39.470;-0.376;2023-04-24T05:23:31;5.80;;;4.70;;
79124;SDS011;68527;39.470;-0.376;2023-04-24T05:28:22;6.00;;;4.70;;
79124;SDS011;68527;39.470;-0.376;2023-04-24T05:30:48;6.30;;;4.40;;
79124;SDS011;68527;39.470;-0.376;2023-04-24T05:33:14;6.10;;;4.30;;
79124;SDS011;68527;39.470;-0.376;2023-04-24T05:35:40;5.70;;;4.40;;
79124;SDS011;68527;39.470;-0.376;2023-04-24T05:38:11;6.20;;;4.60;;
79124;SDS011;68527;39.470;-0.376;2023-04-24T05:40:38;7.40;;;4.50;;
79124;SDS011;68527;39.470;-0.376;2023-04-24T05:43:04;8.10;;;5.00;;
79124;SDS011;68527;39.470;-0.376;2023-04-24T05:45:29;6.90;;;4.40;;
79124;SDS011;68527;39.470;-0.376;2023-04-24T05:50:20;7.90;;;4.10;;
79124;SDS011;68527;39.470;-0.376;2023-04-24T05:55:11;7.00;;;4.00;;
79124;SDS011;68527;39.470;-0.376;2023-04-24T05:57:37;5.60;;;4.40;;
79124;SDS011;68527;39.470;-0.376;2023-04-24T06:00:03;6.50;;;4.40;;
79124;SDS011;68527;39.470;-0.376;2023-04-24T06:02:29;5.50;;;4.60;;
79124;SDS011;68527;39.470;-0.376;2023-04-24T06:05:00;6.00;;;4.20;;
79124;SDS011;68527;39.470;-0.376;2023-04-24T06:07:26;6.30;;;4.10;;
79124;SDS011;68527;39.470;-0.376;2023-04-24T06:09:52;5.60;;;4.10;;
79124;SDS011;68527;39.470;-0.376;2023-04-24T06:12:18;6.30;;;4.30;;
79124;SDS011;68527;39.470;-0.376;2023-04-24T06:17:09;5.30;;;3.80;;
79124;SDS011;68527;39.470;-0.376;2023-04-24T06:19:34;6.40;;;4.10;;
79124;SDS011;68527;39.470;-0.376;2023-04-24T06:22:00;5.20;;;4.30;;
79124;SDS011;68527;39.470;-0.376;2023-04-24T06:24:28;6.40;;;4.30;;
79124;SDS011;68527;39.470;-0.376;2023-04-24T06:26:54;5.60;;;4.30;;
79124;SDS011;68527;39.470;-0.376;2023-04-24T06:31:45;4.50;;;3.90;;
79124;SDS011;68527;39.470;-0.376;2023-04-24T06:34:11;6.80;;;3.70;;
79124;SDS011;68527;39.470;-0.376;2023-04-24T06:36:36;7.20;;;3.90;;
79124;SDS011;68527;39.470;-0.376;2023-04-24T06:41:28;6.60;;;4.30;;
79124;SDS011;68527;39.470;-0.376;2023-04-24T06:43:54;6.70;;;3.80;;
79124;SDS011;68527;39.470;-0.376;2023-04-24T06:46:19;7.10;;;4.20;;
79124;SDS011;68527;39.470;-0.376;2023-04-24T06:48:48;6.50;;;4.90;;
79124;SDS011;68527;39.470;-0.376;2023-04-24T06:51:15;5.50;;;4.10;;
79124;SDS011;68527;39.470;-0.376;2023-04-24T06:53:42;7.50;;;4.30;;
79124;SDS011;68527;39.470;-0.376;2023-04-24T06:56:08;7.10;;;4.50;;
79124;SDS011;68527;39.470;-0.376;2023-04-24T06:58:34;5.50;;;4.40;;
79124;SDS011;68527;39.470;-0.376;2023-04-24T07:00:59;7.80;;;4.50;;
79124;SDS011;68527;39.470;-0.376;2023-04-24T07:03:25;7.00;;;4.10;;
79124;SDS011;68527;39.470;-0.376;2023-04-24T07:05:50;7.00;;;5.00;;
79124;SDS011;68527;39.470;-0.376;2023-04-24T07:10:43;5.70;;;4.40;;
79124;SDS011;68527;39.470;-0.376;2023-04-24T07:13:10;6.10;;;4.30;;
79124;SDS011;68527;39.470;-0.376;2023-04-24T07:15:35;5.30;;;4.10;;
79124;SDS011;68527;39.470;-0.376;2023-04-24T07:18:01;7.60;;;4.30;;
79124;SDS011;68527;39.470;-0.376;2023-04-24T07:22:52;7.40;;;4.00;;
79124;SDS011;68527;39.470;-0.376;2023-04-24T07:25:19;6.80;;;4.20;;
79124;SDS011;68527;39.470;-0.376;2023-04-24T07:27:44;6.50;;;4.80;;
79124;SDS011;68527;39.470;-0.376;2023-04-24T07:30:10;6.40;;;4.50;;
79124;SDS011;68527;39.470;-0.376;2023-04-24T07:32:36;7.90;;;4.60;;
79124;SDS011;68527;39.470;-0.376;2023-04-24T07:37:27;6.30;;;4.20;;
79124;SDS011;68527;39.470;-0.376;2023-04-24T07:39:53;9.00;;;4.30;;
79124;SDS011;68527;39.470;-0.376;2023-04-24T07:42:19;5.40;;;4.20;;
79124;SDS011;68527;39.470;-0.376;2023-04-24T07:44:45;7.10;;;4.30;;
79124;SDS011;68527;39.470;-0.376;2023-04-24T07:47:12;7.60;;;3.80;;
79124;SDS011;68527;39.470;-0.376;2023-04-24T07:49:41;9.50;;;4.60;;
79124;SDS011;68527;39.470;-0.376;2023-04-24T07:52:07;5.20;;;4.10;;
79124;SDS011;68527;39.470;-0.376;2023-04-24T07:54:33;5.70;;;4.00;;
79124;SDS011;68527;39.470;-0.376;2023-04-24T07:56:59;6.20;;;4.20;;
79124;SDS011;68527;39.470;-0.376;2023-04-24T07:59:25;6.70;;;3.70;;
79124;SDS011;68527;39.470;-0.376;2023-04-24T08:01:51;5.10;;;3.60;;
79124;SDS011;68527;39.470;-0.376;2023-04-24T08:06:43;5.10;;;4.00;;
79124;SDS011;68527;39.470;-0.376;2023-04-24T08:09:09;5.10;;;3.60;;
79124;SDS011;68527;39.470;-0.376;2023-04-24T08:11:36;4.80;;;4.00;;
79124;SDS011;68527;39.470;-0.376;2023-04-24T08:14:01;5.40;;;3.70;;
79124;SDS011;68527;39.470;-0.376;2023-04-24T08:16:27;6.80;;;3.80;;
79124;SDS011;68527;39.470;-0.376;2023-04-24T08:21:18;5.50;;;4.10;;
79124;SDS011;68527;39.470;-0.376;2023-04-24T08:23:45;5.30;;;3.70;;
79124;SDS011;68527;39.470;-0.376;2023-04-24T08:26:11;4.80;;;3.80;;
79124;SDS011;68527;39.470;-0.376;2023-04-24T08:28:38;5.40;;;3.60;;
79124;SDS011;68527;39.470;-0.376;2023-04-24T08:31:04;5.70;;;3.50;;
79124;SDS011;68527;39.470;-0.376;2023-04-24T08:33:29;6.40;;;4.20;;
79124;SDS011;68527;39.470;-0.376;2023-04-24T08:36:02;4.80;;;4.10;;
79124;SDS011;68527;39.470;-0.376;2023-04-24T08:38:29;5.20;;;3.70;;
79124;SDS011;68527;39.470;-0.376;2023-04-24T08:40:56;5.70;;;3.60;;
79124;SDS011;68527;39.470;-0.376;2023-04-24T08:43:23;3.90;;;3.40;;
79124;SDS011;68527;39.470;-0.376;2023-04-24T08:45:51;5.70;;;4.00;;
79124;SDS011;68527;39.470;-0.376;2023-04-24T08:48:17;5.90;;;3.90;;
79124;SDS011;68527;39.470;-0.376;2023-04-24T08:50:43;6.40;;;4.10;;
79124;SDS011;68527;39.470;-0.376;2023-04-24T08:53:10;5.20;;;3.60;;
79124;SDS011;68527;39.470;-0.376;2023-04-24T08:55:35;4.10;;;3.20;;
79124;SDS011;68527;39.470;-0.376;2023-04-24T08:58:02;4.80;;;3.60;;
79124;SDS011;68527;39.470;-0.376;2023-04-24T09:00:29;3.60;;;3.10;;
79124;SDS011;68527;39.470;-0.376;2023-04-24T09:02:55;5.00;;;3.50;;
79124;SDS011;68527;39.470;-0.376;2023-04-24T09:05:21;5.70;;;3.70;;
79124;SDS011;68527;39.470;-0.376;2023-04-24T09:07:55;5.90;;;3.80;;
79124;SDS011;68527;39.470;-0.376;2023-04-24T09:10:23;5.40;;;3.50;;
79124;SDS011;68527;39.470;-0.376;2023-04-24T09:12:52;4.80;;;3.60;;
79124;SDS011;68527;39.470;-0.376;2023-04-24T09:15:20;5.30;;;3.40;;
79124;SDS011;68527;39.470;-0.376;2023-04-24T09:17:46;5.00;;;3.60;;
79124;SDS011;68527;39.470;-0.376;2023-04-24T09:20:12;4.50;;;3.20;;
79124;SDS011;68527;39.470;-0.376;2023-04-24T09:22:38;6.20;;;3.40;;
79124;SDS011;68527;39.470;-0.376;2023-04-24T09:25:04;4.50;;;3.10;;
79124;SDS011;68527;39.470;-0.376;2023-04-24T09:27:32;4.70;;;3.20;;
79124;SDS011;68527;39.470;-0.376;2023-04-24T09:29:58;5.20;;;3.20;;
79124;SDS011;68527;39.470;-0.376;2023-04-24T09:32:24;4.10;;;3.20;;
79124;SDS011;68527;39.470;-0.376;2023-04-24T09:35:12;5.50;;;3.20;;
79124;SDS011;68527;39.470;-0.376;2023-04-24T09:37:38;4.20;;;3.00;;
79124;SDS011;68527;39.470;-0.376;2023-04-24T09:40:07;4.70;;;3.20;;
79124;SDS011;68527;39.470;-0.376;2023-04-24T09:42:36;4.00;;;3.20;;
79124;SDS011;68527;39.470;-0.376;2023-04-24T09:45:01;4.90;;;3.20;;
79124;SDS011;68527;39.470;-0.376;2023-04-24T09:47:30;4.70;;;3.30;;
79124;SDS011;68527;39.470;-0.376;2023-04-24T09:50:08;4.60;;;3.00;;
79124;SDS011;68527;39.470;-0.376;2023-04-24T09:52:41;4.00;;;3.20;;
79124;SDS011;68527;39.470;-0.376;2023-04-24T09:55:15;5.50;;;3.30;;
79124;SDS011;68527;39.470;-0.376;2023-04-24T09:57:47;4.20;;;2.80;;
79124;SDS011;68527;39.470;-0.376;2023-04-24T10:00:28;4.80;;;3.30;;
79124;SDS011;68527;39.470;-0.376;2023-04-24T10:02:59;5.00;;;3.30;;
79124;SDS011;68527;39.470;-0.376;2023-04-24T10:05:26;5.80;;;3.80;;
79124;SDS011;68527;39.470;-0.376;2023-04-24T10:08:05;5.80;;;3.20;;
79124;SDS011;68527;39.470;-0.376;2023-04-24T10:10:33;4.70;;;3.30;;
79124;SDS011;68527;39.470;-0.376;2023-04-24T10:13:00;4.60;;;3.50;;
79124;SDS011;68527;39.470;-0.376;2023-04-24T10:15:26;3.90;;;3.10;;
79124;SDS011;68527;39.470;-0.376;2023-04-24T10:17:52;4.90;;;3.10;;
79124;SDS011;68527;39.470;-0.376;2023-04-24T10:20:19;4.00;;;3.30;;
79124;SDS011;68527;39.470;-0.376;2023-04-24T10:22:49;4.70;;;3.10;;
79124;SDS011;68527;39.470;-0.376;2023-04-24T10:25:18;4.60;;;2.90;;
79124;SDS011;68527;39.470;-0.376;2023-04-24T10:27:49;4.00;;;3.20;;
79124;SDS011;68527;39.470;-0.376;2023-04-24T10:30:16;4.30;;;2.50;;
79124;SDS011;68527;39.470;-0.376;2023-04-24T10:32:42;3.00;;;2.30;;
79124;SDS011;68527;39.470;-0.376;2023-04-24T10:35:09;5.80;;;2.80;;
79124;SDS011;68527;39.470;-0.376;2023-04-24T10:37:39;3.70;;;2.90;;
79124;SDS011;68527;39.470;-0.376;2023-04-24T10:40:07;3.80;;;3.10;;
79124;SDS011;68527;39.470;-0.376;2023-04-24T10:42:34;3.70;;;2.70;;
79124;SDS011;68527;39.470;-0.376;2023-04-24T10:45:04;4.70;;;3.40;;
79124;SDS011;68527;39.470;-0.376;2023-04-24T10:47:39;4.90;;;3.30;;
79124;SDS011;68527;39.470;-0.376;2023-04-24T10:50:09;4.40;;;2.50;;
79124;SDS011;68527;39.470;-0.376;2023-04-24T10:52:48;4.80;;;3.20;;
79124;SDS011;68527;39.470;-0.376;2023-04-24T10:58:15;3.50;;;2.50;;
79124;SDS011;68527;39.470;-0.376;2023-04-24T11:00:42;4.00;;;2.50;;
79124;SDS011;68527;39.470;-0.376;2023-04-24T11:03:22;4.60;;;2.50;;
79124;SDS011;68527;39.470;-0.376;2023-04-24T11:05:55;3.80;;;2.80;;
79124;SDS011;68527;39.470;-0.376;2023-04-24T11:08:23;4.00;;;2.70;;
79124;SDS011;68527;39.470;-0.376;2023-04-24T11:18:51;4.20;;;3.10;;
79124;SDS011;68527;39.470;-0.376;2023-04-24T11:21:22;3.50;;;3.00;;
79124;SDS011;68527;39.470;-0.376;2023-04-24T11:23:48;4.60;;;2.80;;
79124;SDS011;68527;39.470;-0.376;2023-04-24T11:26:22;3.90;;;2.90;;
79124;SDS011;68527;39.470;-0.376;2023-04-24T11:28:55;4.10;;;2.70;;
79124;SDS011;68527;39.470;-0.376;2023-04-24T11:31:35;3.00;;;2.30;;
79124;SDS011;68527;39.470;-0.376;2023-04-24T11:34:06;3.70;;;2.90;;
79124;SDS011;68527;39.470;-0.376;2023-04-24T11:36:33;3.90;;;2.70;;
79124;SDS011;68527;39.470;-0.376;2023-04-24T11:39:00;4.20;;;3.00;;
79124;SDS011;68527;39.470;-0.376;2023-04-24T11:41:27;4.10;;;2.40;;
79124;SDS011;68527;39.470;-0.376;2023-04-24T11:43:53;4.20;;;2.70;;
79124;SDS011;68527;39.470;-0.376;2023-04-24T11:46:22;3.70;;;2.90;;
79124;SDS011;68527;39.470;-0.376;2023-04-24T11:48:47;3.30;;;2.60;;
79124;SDS011;68527;39.470;-0.376;2023-04-24T11:51:13;4.60;;;2.90;;
79124;SDS011;68527;39.470;-0.376;2023-04-24T11:53:39;4.10;;;3.00;;
79124;SDS011;68527;39.470;-0.376;2023-04-24T11:56:05;4.80;;;2.90;;
79124;SDS011;68527;39.470;-0.376;2023-04-24T11:58:35;4.10;;;2.50;;
79124;SDS011;68527;39.470;-0.376;2023-04-24T12:01:01;3.50;;;2.70;;
79124;SDS011;68527;39.470;-0.376;2023-04-24T12:03:27;3.20;;;2.30;;
79124;SDS011;68527;39.470;-0.376;2023-04-24T12:05:52;5.10;;;3.30;;
79124;SDS011;68527;39.470;-0.376;2023-04-24T12:08:27;3.70;;;2.70;;
79124;SDS011;68527;39.470;-0.376;2023-04-24T12:10:54;4.00;;;2.80;;
79124;SDS011;68527;39.470;-0.376;2023-04-24T12:13:19;2.90;;;2.20;;
79124;SDS011;68527;39.470;-0.376;2023-04-24T12:15:45;3.30;;;2.50;;
79124;SDS011;68527;39.470;-0.376;2023-04-24T12:18:13;4.10;;;2.50;;
79124;SDS011;68527;39.470;-0.376;2023-04-24T12:20:41;2.80;;;2.20;;
79124;SDS011;68527;39.470;-0.376;2023-04-24T12:25:33;4.00;;;2.40;;
79124;SDS011;68527;39.470;-0.376;2023-04-24T12:30:28;4.90;;;2.60;;
79124;SDS011;68527;39.470;-0.376;2023-04-24T12:32:56;3.40;;;2.30;;
79124;SDS011;68527;39.470;-0.376;2023-04-24T12:35:23;3.30;;;3.00;;
79124;SDS011;68527;39.470;-0.376;2023-04-24T12:37:50;3.20;;;2.20;;
79124;SDS011;68527;39.470;-0.376;2023-04-24T12:40:16;3.50;;;2.40;;
79124;SDS011;68527;39.470;-0.376;2023-04-24T12:42:43;3.90;;;2.20;;
79124;SDS011;68527;39.470;-0.376;2023-04-24T12:45:10;3.50;;;2.00;;
79124;SDS011;68527;39.470;-0.376;2023-04-24T12:47:37;3.50;;;2.40;;
79124;SDS011;68527;39.470;-0.376;2023-04-24T12:50:04;3.10;;;2.20;;
79124;SDS011;68527;39.470;-0.376;2023-04-24T12:52:31;2.60;;;2.30;;
79124;SDS011;68527;39.470;-0.376;2023-04-24T12:54:58;4.00;;;2.40;;
79124;SDS011;68527;39.470;-0.376;2023-04-24T12:57:25;3.30;;;2.10;;
79124;SDS011;68527;39.470;-0.376;2023-04-24T12:59:55;3.60;;;2.30;;
79124;SDS011;68527;39.470;-0.376;2023-04-24T13:02:21;3.80;;;2.60;;
79124;SDS011;68527;39.470;-0.376;2023-04-24T13:04:48;4.00;;;2.60;;
79124;SDS011;68527;39.470;-0.376;2023-04-24T13:07:14;4.20;;;2.50;;
79124;SDS011;68527;39.470;-0.376;2023-04-24T13:09:40;3.20;;;2.60;;
79124;SDS011;68527;39.470;-0.376;2023-04-24T13:12:07;3.80;;;2.30;;
79124;SDS011;68527;39.470;-0.376;2023-04-24T13:14:33;3.90;;;2.20;;
79124;SDS011;68527;39.470;-0.376;2023-04-24T13:16:59;3.40;;;2.50;;
79124;SDS011;68527;39.470;-0.376;2023-04-24T13:19:25;3.50;;;2.50;;
79124;SDS011;68527;39.470;-0.376;2023-04-24T13:21:51;3.50;;;2.60;;
79124;SDS011;68527;39.470;-0.376;2023-04-24T13:24:17;4.50;;;2.60;;
79124;SDS011;68527;39.470;-0.376;2023-04-24T13:26:43;3.60;;;2.30;;
79124;SDS011;68527;39.470;-0.376;2023-04-24T13:29:09;4.80;;;2.30;;
79124;SDS011;68527;39.470;-0.376;2023-04-24T13:31:35;3.10;;;2.40;;
79124;SDS011;68527;39.470;-0.376;2023-04-24T13:34:01;4.00;;;2.50;;
79124;SDS011;68527;39.470;-0.376;2023-04-24T13:36:27;3.80;;;2.40;;
79124;SDS011;68527;39.470;-0.376;2023-04-24T13:38:53;3.50;;;2.60;;
79124;SDS011;68527;39.470;-0.376;2023-04-24T13:41:19;3.10;;;2.30;;
79124;SDS011;68527;39.470;-0.376;2023-04-24T13:43:44;3.30;;;2.10;;
79124;SDS011;68527;39.470;-0.376;2023-04-24T13:46:10;3.60;;;2.40;;
79124;SDS011;68527;39.470;-0.376;2023-04-24T13:51:01;4.30;;;2.90;;
79124;SDS011;68527;39.470;-0.376;2023-04-24T13:53:27;3.90;;;2.70;;
79124;SDS011;68527;39.470;-0.376;2023-04-24T13:55:53;3.20;;;2.60;;
79124;SDS011;68527;39.470;-0.376;2023-04-24T14:00:44;4.20;;;2.30;;
79124;SDS011;68527;39.470;-0.376;2023-04-24T14:03:10;3.40;;;2.10;;
79124;SDS011;68527;39.470;-0.376;2023-04-24T14:05:36;3.90;;;2.00;;
79124;SDS011;68527;39.470;-0.376;2023-04-24T14:08:01;4.30;;;2.50;;
79124;SDS011;68527;39.470;-0.376;2023-04-24T14:12:53;3.80;;;2.20;;
79124;SDS011;68527;39.470;-0.376;2023-04-24T14:15:19;3.60;;;2.30;;
79124;SDS011;68527;39.470;-0.376;2023-04-24T14:17:44;4.00;;;2.50;;
79124;SDS011;68527;39.470;-0.376;2023-04-24T14:20:11;4.90;;;2.20;;
79124;SDS011;68527;39.470;-0.376;2023-04-24T14:22:38;4.10;;;2.90;;
79124;SDS011;68527;39.470;-0.376;2023-04-24T14:27:30;3.30;;;2.70;;
79124;SDS011;68527;39.470;-0.376;2023-04-24T14:29:57;4.80;;;2.40;;
79124;SDS011;68527;39.470;-0.376;2023-04-24T14:34:48;4.20;;;2.40;;
79124;SDS011;68527;39.470;-0.376;2023-04-24T14:37:13;4.80;;;2.60;;
79124;SDS011;68527;39.470;-0.376;2023-04-24T14:39:39;3.60;;;2.30;;
79124;SDS011;68527;39.470;-0.376;2023-04-24T14:42:05;4.70;;;2.60;;
79124;SDS011;68527;39.470;-0.376;2023-04-24T14:44:31;4.60;;;2.20;;
79124;SDS011;68527;39.470;-0.376;2023-04-24T14:46:58;3.90;;;2.60;;
79124;SDS011;68527;39.470;-0.376;2023-04-24T14:49:23;4.20;;;2.50;;
79124;SDS011;68527;39.470;-0.376;2023-04-24T14:51:50;3.70;;;2.50;;
79124;SDS011;68527;39.470;-0.376;2023-04-24T14:54:15;3.50;;;2.30;;
79124;SDS011;68527;39.470;-0.376;2023-04-24T14:59:07;4.60;;;2.20;;
79124;SDS011;68527;39.470;-0.376;2023-04-24T15:01:33;4.10;;;2.50;;
79124;SDS011;68527;39.470;-0.376;2023-04-24T15:03:59;4.20;;;2.50;;
79124;SDS011;68527;39.470;-0.376;2023-04-24T15:06:24;5.10;;;2.90;;
79124;SDS011;68527;39.470;-0.376;2023-04-24T15:08:50;4.20;;;2.50;;
79124;SDS011;68527;39.470;-0.376;2023-04-24T15:11:16;3.30;;;2.40;;
79124;SDS011;68527;39.470;-0.376;2023-04-24T15:13:42;3.90;;;2.90;;
79124;SDS011;68527;39.470;-0.376;2023-04-24T15:16:10;12.50;;;4.30;;
79124;SDS011;68527;39.470;-0.376;2023-04-24T15:18:35;10.30;;;3.30;;
79124;SDS011;68527;39.470;-0.376;2023-04-24T15:21:01;7.20;;;2.80;;
79124;SDS011;68527;39.470;-0.376;2023-04-24T15:23:27;7.60;;;2.80;;
79124;SDS011;68527;39.470;-0.376;2023-04-24T15:25:52;3.50;;;2.40;;
79124;SDS011;68527;39.470;-0.376;2023-04-24T15:28:18;3.80;;;2.40;;
79124;SDS011;68527;39.470;-0.376;2023-04-24T15:30:44;5.20;;;2.70;;
79124;SDS011;68527;39.470;-0.376;2023-04-24T15:33:09;8.30;;;3.10;;
79124;SDS011;68527;39.470;-0.376;2023-04-24T15:35:35;9.80;;;2.50;;
79124;SDS011;68527;39.470;-0.376;2023-04-24T15:38:00;4.70;;;2.30;;
79124;SDS011;68527;39.470;-0.376;2023-04-24T15:40:27;4.30;;;2.40;;
79124;SDS011;68527;39.470;-0.376;2023-04-24T15:42:53;4.80;;;2.30;;
79124;SDS011;68527;39.470;-0.376;2023-04-24T15:45:18;4.50;;;2.30;;
79124;SDS011;68527;39.470;-0.376;2023-04-24T15:47:44;4.20;;;2.60;;
79124;SDS011;68527;39.470;-0.376;2023-04-24T15:50:11;4.90;;;2.40;;
79124;SDS011;68527;39.470;-0.376;2023-04-24T15:52:37;5.50;;;2.60;;
79124;SDS011;68527;39.470;-0.376;2023-04-24T15:55:03;4.70;;;2.30;;
79124;SDS011;68527;39.470;-0.376;2023-04-24T15:57:30;5.00;;;2.90;;
79124;SDS011;68527;39.470;-0.376;2023-04-24T15:59:56;4.70;;;2.30;;
79124;SDS011;68527;39.470;-0.376;2023-04-24T16:02:21;7.60;;;2.30;;
79124;SDS011;68527;39.470;-0.376;2023-04-24T16:04:48;6.40;;;2.60;;
79124;SDS011;68527;39.470;-0.376;2023-04-24T16:07:14;5.10;;;2.60;;
79124;SDS011;68527;39.470;-0.376;2023-04-24T16:09:42;3.30;;;2.30;;
79124;SDS011;68527;39.470;-0.376;2023-04-24T16:12:08;6.50;;;2.50;;
79124;SDS011;68527;39.470;-0.376;2023-04-24T16:14:35;4.40;;;2.50;;
79124;SDS011;68527;39.470;-0.376;2023-04-24T16:17:01;4.40;;;1.90;;